sensor_id;sensor_type;location;lat;lon;timestamp;pressure;altitude;pressure_sealevel;temperature;humidity
76297;BME280;65104;52.994;6.552;2023-03-01T00:01:48;103255.63;;;-1.67;95.71
76297;BME280;65104;52.994;6.552;2023-03-01T00:04:14;103245.09;;;-1.72;96.19
76297;BME280;65104;52.994;6.552;2023-03-01T00:06:40;103248.19;;;-1.74;96.16
76297;BME280;65104;52.994;6.552;2023-03-01T00:09:07;103246.03;;;-1.78;95.83
76297;BME280;65104;52.994;6.552;2023-03-01T00:11:33;103254.38;;;-1.79;95.73
76297;BME280;65104;52.994;6.552;2023-03-01T00:14:02;103240.72;;;-1.81;95.65
76297;BME280;65104;52.994;6.552;2023-03-01T00:16:33;103234.59;;;-1.83;95.04
76297;BME280;65104;52.994;6.552;2023-03-01T00:18:59;103230.28;;;-1.84;94.78
76297;BME280;65104;52.994;6.552;2023-03-01T00:21:25;103233.88;;;-1.82;95.32
76297;BME280;65104;52.994;6.552;2023-03-01T00:23:51;103237.84;;;-1.84;95.19
76297;BME280;65104;52.994;6.552;2023-03-01T00:26:18;103231.63;;;-1.88;94.96
76297;BME280;65104;52.994;6.552;2023-03-01T00:28:44;103237.38;;;-1.89;95.24
76297;BME280;65104;52.994;6.552;2023-03-01T00:31:15;103225.53;;;-1.90;94.95
76297;BME280;65104;52.994;6.552;2023-03-01T00:33:41;103218.69;;;-1.91;96.03
76297;BME280;65104;52.994;6.552;2023-03-01T00:36:07;103228.44;;;-1.94;95.86
76297;BME280;65104;52.994;6.552;2023-03-01T00:38:38;103230.22;;;-1.93;96.35
76297;BME280;65104;52.994;6.552;2023-03-01T00:41:05;103226.81;;;-1.94;96.52
76297;BME280;65104;52.994;6.552;2023-03-01T00:43:31;103225.75;;;-1.96;96.27
76297;BME280;65104;52.994;6.552;2023-03-01T00:46:05;103231.84;;;-1.94;95.88
76297;BME280;65104;52.994;6.552;2023-03-01T00:48:31;103226.59;;;-1.88;96.52
76297;BME280;65104;52.994;6.552;2023-03-01T00:50:57;103230.47;;;-1.83;96.55
76297;BME280;65104;52.994;6.552;2023-03-01T00:53:28;103226.31;;;-1.82;96.87
76297;BME280;65104;52.994;6.552;2023-03-01T00:55:56;103228.19;;;-1.73;97.68
76297;BME280;65104;52.994;6.552;2023-03-01T00:58:22;103233.41;;;-1.71;98.56
76297;BME280;65104;52.994;6.552;2023-03-01T01:00:47;103229.81;;;-1.73;100.00
76297;BME280;65104;52.994;6.552;2023-03-01T01:03:13;103227.31;;;-1.73;99.28
76297;BME280;65104;52.994;6.552;2023-03-01T01:05:38;103218.50;;;-1.77;99.86
76297;BME280;65104;52.994;6.552;2023-03-01T01:08:03;103216.97;;;-1.83;99.70
76297;BME280;65104;52.994;6.552;2023-03-01T01:10:29;103218.44;;;-1.85;100.00
76297;BME280;65104;52.994;6.552;2023-03-01T01:12:54;103216.66;;;-1.86;100.00
76297;BME280;65104;52.994;6.552;2023-03-01T01:15:20;103215.63;;;-1.88;100.00
76297;BME280;65104;52.994;6.552;2023-03-01T01:17:45;103215.91;;;-1.85;100.00
76297;BME280;65104;52.994;6.552;2023-03-01T01:20:11;103206.56;;;-1.86;100.00
76297;BME280;65104;52.994;6.552;2023-03-01T01:22:36;103211.53;;;-1.95;99.89
76297;BME280;65104;52.994;6.552;2023-03-01T01:25:02;103209.25;;;-2.01;100.00
76297;BME280;65104;52.994;6.552;2023-03-01T01:27:27;103196.03;;;-2.07;100.00
76297;BME280;65104;52.994;6.552;2023-03-01T01:29:54;103194.53;;;-2.05;100.00
76297;BME280;65104;52.994;6.552;2023-03-01T01:32:19;103201.38;;;-2.04;100.00
76297;BME280;65104;52.994;6.552;2023-03-01T01:34:45;103189.44;;;-2.13;100.00
76297;BME280;65104;52.994;6.552;2023-03-01T01:37:11;103188.69;;;-2.12;100.00
76297;BME280;65104;52.994;6.552;2023-03-01T01:39:37;103176.03;;;-2.21;100.00
76297;BME280;65104;52.994;6.552;2023-03-01T01:42:03;103180.16;;;-2.21;100.00
76297;BME280;65104;52.994;6.552;2023-03-01T01:44:29;103179.09;;;-2.23;100.00
76297;BME280;65104;52.994;6.552;2023-03-01T01:46:59;103178.06;;;-2.25;100.00
76297;BME280;65104;52.994;6.552;2023-03-01T01:51:55;103182.50;;;-2.23;100.00
76297;BME280;65104;52.994;6.552;2023-03-01T01:54:35;103173.75;;;-2.27;99.69
76297;BME280;65104;52.994;6.552;2023-03-01T01:57:07;103171.81;;;-2.29;99.94
76297;BME280;65104;52.994;6.552;2023-03-01T01:59:34;103169.84;;;-2.32;99.59
76297;BME280;65104;52.994;6.552;2023-03-01T02:02:02;103172.38;;;-2.32;99.53
76297;BME280;65104;52.994;6.552;2023-03-01T02:04:29;103161.56;;;-2.31;99.29
76297;BME280;65104;52.994;6.552;2023-03-01T02:07:02;103167.56;;;-2.37;98.28
76297;BME280;65104;52.994;6.552;2023-03-01T02:09:30;103160.41;;;-2.41;98.81
76297;BME280;65104;52.994;6.552;2023-03-01T02:11:57;103166.34;;;-2.41;99.67
76297;BME280;65104;52.994;6.552;2023-03-01T02:14:23;103154.63;;;-2.33;99.21
76297;BME280;65104;52.994;6.552;2023-03-01T02:16:49;103159.31;;;-2.36;99.51
76297;BME280;65104;52.994;6.552;2023-03-01T02:19:28;103151.66;;;-2.45;99.27
76297;BME280;65104;52.994;6.552;2023-03-01T02:22:01;103163.00;;;-2.48;98.92
76297;BME280;65104;52.994;6.552;2023-03-01T02:24:37;103152.66;;;-2.51;99.32
76297;BME280;65104;52.994;6.552;2023-03-01T02:27:03;103145.47;;;-2.55;98.96
76297;BME280;65104;52.994;6.552;2023-03-01T02:29:29;103150.50;;;-2.55;99.50
76297;BME280;65104;52.994;6.552;2023-03-01T02:31:56;103141.16;;;-2.56;99.96
76297;BME280;65104;52.994;6.552;2023-03-01T02:34:24;103137.47;;;-2.60;99.57
76297;BME280;65104;52.994;6.552;2023-03-01T02:37:00;103140.88;;;-2.59;99.42
76297;BME280;65104;52.994;6.552;2023-03-01T02:39:59;103135.31;;;-2.64;98.05
76297;BME280;65104;52.994;6.552;2023-03-01T02:42:33;103140.19;;;-2.66;99.07
76297;BME280;65104;52.994;6.552;2023-03-01T02:45:01;103139.78;;;-2.61;98.86
76297;BME280;65104;52.994;6.552;2023-03-01T02:47:26;103135.88;;;-2.67;97.98
76297;BME280;65104;52.994;6.552;2023-03-01T02:49:51;103132.88;;;-2.71;98.44
76297;BME280;65104;52.994;6.552;2023-03-01T02:55:10;103128.41;;;-2.74;98.71
76297;BME280;65104;52.994;6.552;2023-03-01T02:57:40;103130.19;;;-2.73;98.36
76297;BME280;65104;52.994;6.552;2023-03-01T03:00:11;103117.09;;;-2.77;98.71
76297;BME280;65104;52.994;6.552;2023-03-01T03:02:48;103116.97;;;-2.79;98.50
76297;BME280;65104;52.994;6.552;2023-03-01T03:05:23;103116.63;;;-2.82;97.51
76297;BME280;65104;52.994;6.552;2023-03-01T03:07:49;103119.16;;;-2.82;97.00
76297;BME280;65104;52.994;6.552;2023-03-01T03:10:19;103118.59;;;-2.79;98.50
76297;BME280;65104;52.994;6.552;2023-03-01T03:12:49;103125.25;;;-2.80;98.44
76297;BME280;65104;52.994;6.552;2023-03-01T03:15:16;103118.06;;;-2.84;98.41
76297;BME280;65104;52.994;6.552;2023-03-01T03:17:42;103114.91;;;-2.90;98.26
76297;BME280;65104;52.994;6.552;2023-03-01T03:20:10;103109.16;;;-2.89;99.27
76297;BME280;65104;52.994;6.552;2023-03-01T03:22:40;103104.50;;;-2.93;99.53
76297;BME280;65104;52.994;6.552;2023-03-01T03:25:09;103108.16;;;-2.98;98.98
76297;BME280;65104;52.994;6.552;2023-03-01T03:27:36;103108.72;;;-3.00;97.88
76297;BME280;65104;52.994;6.552;2023-03-01T03:30:04;103111.78;;;-3.03;98.40
76297;BME280;65104;52.994;6.552;2023-03-01T03:32:36;103111.78;;;-3.03;98.04
76297;BME280;65104;52.994;6.552;2023-03-01T03:35:03;103111.06;;;-3.02;97.44
76297;BME280;65104;52.994;6.552;2023-03-01T03:37:40;103108.00;;;-2.99;97.86
76297;BME280;65104;52.994;6.552;2023-03-01T03:40:25;103118.84;;;-3.08;98.32
76297;BME280;65104;52.994;6.552;2023-03-01T03:42:51;103105.75;;;-3.12;97.43
76297;BME280;65104;52.994;6.552;2023-03-01T03:45:17;103114.03;;;-3.13;98.12
76297;BME280;65104;52.994;6.552;2023-03-01T03:47:43;103116.94;;;-3.17;97.81
76297;BME280;65104;52.994;6.552;2023-03-01T03:50:13;103107.44;;;-3.20;97.15
76297;BME280;65104;52.994;6.552;2023-03-01T03:52:39;103118.19;;;-3.21;98.14
76297;BME280;65104;52.994;6.552;2023-03-01T03:55:06;103113.22;;;-3.28;97.77
76297;BME280;65104;52.994;6.552;2023-03-01T03:57:36;103112.34;;;-3.28;97.43
76297;BME280;65104;52.994;6.552;2023-03-01T04:00:02;103108.75;;;-3.30;97.71
76297;BME280;65104;52.994;6.552;2023-03-01T04:02:30;103117.91;;;-3.31;96.90
76297;BME280;65104;52.994;6.552;2023-03-01T04:04:55;103114.84;;;-3.28;96.52
76297;BME280;65104;52.994;6.552;2023-03-01T04:07:20;103106.41;;;-3.29;97.59
76297;BME280;65104;52.994;6.552;2023-03-01T04:09:46;103117.72;;;-3.25;96.84
76297;BME280;65104;52.994;6.552;2023-03-01T04:12:11;103127.03;;;-3.24;97.44
76297;BME280;65104;52.994;6.552;2023-03-01T04:14:36;103121.66;;;-3.27;97.56
76297;BME280;65104;52.994;6.552;2023-03-01T04:17:02;103124.72;;;-3.30;97.85
76297;BME280;65104;52.994;6.552;2023-03-01T04:19:33;103128.38;;;-3.35;97.26
76297;BME280;65104;52.994;6.552;2023-03-01T04:22:02;103125.84;;;-3.35;97.06
76297;BME280;65104;52.994;6.552;2023-03-01T04:24:33;103120.09;;;-3.34;97.44
76297;BME280;65104;52.994;6.552;2023-03-01T04:26:58;103121.72;;;-3.34;97.50
76297;BME280;65104;52.994;6.552;2023-03-01T04:29:23;103113.13;;;-3.36;97.59
76297;BME280;65104;52.994;6.552;2023-03-01T04:31:49;103112.94;;;-3.38;98.03
76297;BME280;65104;52.994;6.552;2023-03-01T04:34:14;103107.91;;;-3.38;97.77
76297;BME280;65104;52.994;6.552;2023-03-01T04:36:40;103106.00;;;-3.41;97.45
76297;BME280;65104;52.994;6.552;2023-03-01T04:39:05;103103.13;;;-3.44;97.57
76297;BME280;65104;52.994;6.552;2023-03-01T04:41:37;103098.81;;;-3.45;97.85
76297;BME280;65104;52.994;6.552;2023-03-01T04:44:08;103089.50;;;-3.46;97.67
76297;BME280;65104;52.994;6.552;2023-03-01T04:46:35;103097.75;;;-3.47;98.59
76297;BME280;65104;52.994;6.552;2023-03-01T04:49:01;103092.41;;;-3.50;97.95
76297;BME280;65104;52.994;6.552;2023-03-01T04:51:27;103091.34;;;-3.52;97.68
76297;BME280;65104;52.994;6.552;2023-03-01T04:53:52;103088.84;;;-3.52;97.63
76297;BME280;65104;52.994;6.552;2023-03-01T04:56:18;103089.56;;;-3.53;97.94
76297;BME280;65104;52.994;6.552;2023-03-01T04:58:44;103083.63;;;-3.53;97.57
76297;BME280;65104;52.994;6.552;2023-03-01T05:01:15;103086.88;;;-3.54;97.26
76297;BME280;65104;52.994;6.552;2023-03-01T05:03:42;103084.34;;;-3.54;98.15
76297;BME280;65104;52.994;6.552;2023-03-01T05:06:08;103078.25;;;-3.56;97.33
76297;BME280;65104;52.994;6.552;2023-03-01T05:08:33;103078.97;;;-3.57;98.38
76297;BME280;65104;52.994;6.552;2023-03-01T05:11:02;103070.25;;;-3.61;97.15
76297;BME280;65104;52.994;6.552;2023-03-01T05:13:27;103073.47;;;-3.62;96.60
76297;BME280;65104;52.994;6.552;2023-03-01T05:15:59;103062.00;;;-3.60;97.73
76297;BME280;65104;52.994;6.552;2023-03-01T05:18:26;103056.63;;;-3.63;97.96
76297;BME280;65104;52.994;6.552;2023-03-01T05:20:53;103056.63;;;-3.63;97.67
76297;BME280;65104;52.994;6.552;2023-03-01T05:23:21;103046.41;;;-3.64;96.88
76297;BME280;65104;52.994;6.552;2023-03-01T05:25:47;103039.44;;;-3.67;96.33
76297;BME280;65104;52.994;6.552;2023-03-01T05:28:13;103037.97;;;-3.65;97.01
76297;BME280;65104;52.994;6.552;2023-03-01T05:30:39;103032.06;;;-3.65;96.35
76297;BME280;65104;52.994;6.552;2023-03-01T05:33:04;103028.81;;;-3.64;97.28
76297;BME280;65104;52.994;6.552;2023-03-01T05:35:32;103030.97;;;-3.60;97.75
76297;BME280;65104;52.994;6.552;2023-03-01T05:37:58;103033.84;;;-3.64;97.16
76297;BME280;65104;52.994;6.552;2023-03-01T05:40:23;103032.28;;;-3.71;97.26
76297;BME280;65104;52.994;6.552;2023-03-01T05:42:52;103026.59;;;-3.77;97.61
76297;BME280;65104;52.994;6.552;2023-03-01T05:45:19;103032.50;;;-3.76;96.65
76297;BME280;65104;52.994;6.552;2023-03-01T05:47:47;103025.53;;;-3.79;96.78
76297;BME280;65104;52.994;6.552;2023-03-01T05:50:24;103028.94;;;-3.79;97.17
76297;BME280;65104;52.994;6.552;2023-03-01T05:53:02;103015.84;;;-3.83;97.37
76297;BME280;65104;52.994;6.552;2023-03-01T05:55:29;103021.78;;;-3.83;96.66
76297;BME280;65104;52.994;6.552;2023-03-01T05:57:57;103014.97;;;-3.84;97.23
76297;BME280;65104;52.994;6.552;2023-03-01T06:00:23;103016.75;;;-3.83;96.76
76297;BME280;65104;52.994;6.552;2023-03-01T06:02:49;103023.78;;;-3.87;96.31
76297;BME280;65104;52.994;6.552;2023-03-01T06:05:17;103014.47;;;-3.88;97.93
76297;BME280;65104;52.994;6.552;2023-03-01T06:07:42;103013.56;;;-3.89;97.09
76297;BME280;65104;52.994;6.552;2023-03-01T06:10:10;103016.63;;;-3.91;96.21
76297;BME280;65104;52.994;6.552;2023-03-01T06:12:37;103019.50;;;-3.88;95.86
76297;BME280;65104;52.994;6.552;2023-03-01T06:15:03;103026.47;;;-3.86;97.40
76297;BME280;65104;52.994;6.552;2023-03-01T06:17:31;103032.22;;;-3.87;96.61
76297;BME280;65104;52.994;6.552;2023-03-01T06:19:57;103022.53;;;-3.91;96.89
76297;BME280;65104;52.994;6.552;2023-03-01T06:22:23;103032.03;;;-3.88;97.13
76297;BME280;65104;52.994;6.552;2023-03-01T06:24:48;103040.28;;;-3.89;97.65
76297;BME280;65104;52.994;6.552;2023-03-01T06:27:13;103043.53;;;-3.90;97.33
76297;BME280;65104;52.994;6.552;2023-03-01T06:29:39;103047.09;;;-3.88;96.61
76297;BME280;65104;52.994;6.552;2023-03-01T06:32:04;103049.22;;;-3.84;96.45
76297;BME280;65104;52.994;6.552;2023-03-01T06:34:30;103057.81;;;-3.82;96.30
76297;BME280;65104;52.994;6.552;2023-03-01T06:36:55;103052.78;;;-3.82;96.53
76297;BME280;65104;52.994;6.552;2023-03-01T06:39:21;103052.78;;;-3.82;95.34
76297;BME280;65104;52.994;6.552;2023-03-01T06:41:46;103059.22;;;-3.77;96.16
76297;BME280;65104;52.994;6.552;2023-03-01T06:44:12;103057.63;;;-3.76;95.83
76297;BME280;65104;52.994;6.552;2023-03-01T06:46:38;103062.22;;;-3.72;96.31
76297;BME280;65104;52.994;6.552;2023-03-01T06:49:04;103049.84;;;-3.71;96.31
76297;BME280;65104;52.994;6.552;2023-03-01T06:51:33;103057.03;;;-3.67;96.43
76297;BME280;65104;52.994;6.552;2023-03-01T06:53:58;103062.91;;;-3.66;96.08
76297;BME280;65104;52.994;6.552;2023-03-01T06:56:23;103066.28;;;-3.59;96.88
76297;BME280;65104;52.994;6.552;2023-03-01T06:58:49;103063.19;;;-3.56;96.09
76297;BME280;65104;52.994;6.552;2023-03-01T07:01:14;103059.41;;;-3.53;96.34
76297;BME280;65104;52.994;6.552;2023-03-01T07:03:40;103064.03;;;-3.49;95.92
76297;BME280;65104;52.994;6.552;2023-03-01T07:06:05;103063.28;;;-3.41;96.37
76297;BME280;65104;52.994;6.552;2023-03-01T07:08:31;103065.00;;;-3.32;95.60
76297;BME280;65104;52.994;6.552;2023-03-01T07:10:57;103071.78;;;-3.24;96.00
76297;BME280;65104;52.994;6.552;2023-03-01T07:13:23;103066.44;;;-3.12;95.60
76297;BME280;65104;52.994;6.552;2023-03-01T07:15:48;103070.31;;;-2.84;95.15
76297;BME280;65104;52.994;6.552;2023-03-01T07:18:14;103068.66;;;-2.45;93.29
76297;BME280;65104;52.994;6.552;2023-03-01T07:20:39;103060.75;;;-2.32;93.24
76297;BME280;65104;52.994;6.552;2023-03-01T07:23:05;103058.81;;;-2.50;93.79
76297;BME280;65104;52.994;6.552;2023-03-01T07:25:31;103062.38;;;-2.48;94.18
76297;BME280;65104;52.994;6.552;2023-03-01T07:27:57;103051.53;;;-2.56;94.57
76297;BME280;65104;52.994;6.552;2023-03-01T07:30:24;103056.81;;;-2.46;95.00
76297;BME280;65104;52.994;6.552;2023-03-01T07:32:51;103055.25;;;-2.37;95.04
76297;BME280;65104;52.994;6.552;2023-03-01T07:35:17;103054.84;;;-2.33;95.48
76297;BME280;65104;52.994;6.552;2023-03-01T07:37:42;103047.78;;;-2.28;95.30
76297;BME280;65104;52.994;6.552;2023-03-01T07:40:08;103045.84;;;-2.15;95.54
76297;BME280;65104;52.994;6.552;2023-03-01T07:42:34;103050.91;;;-1.91;94.01
76297;BME280;65104;52.994;6.552;2023-03-01T07:44:59;103050.38;;;-1.55;94.04
76297;BME280;65104;52.994;6.552;2023-03-01T07:47:25;103050.78;;;-0.93;93.04
76297;BME280;65104;52.994;6.552;2023-03-01T07:49:50;103048.50;;;-0.31;89.19
76297;BME280;65104;52.994;6.552;2023-03-01T07:52:16;103044.91;;;0.01;87.97
76297;BME280;65104;52.994;6.552;2023-03-01T07:54:42;103054.38;;;0.29;87.28
76297;BME280;65104;52.994;6.552;2023-03-01T07:57:09;103053.81;;;0.77;86.25
76297;BME280;65104;52.994;6.552;2023-03-01T07:59:34;103047.41;;;0.80;84.89
76297;BME280;65104;52.994;6.552;2023-03-01T08:02:00;103041.47;;;1.07;84.24
76297;BME280;65104;52.994;6.552;2023-03-01T08:04:26;103046.19;;;1.40;82.36
76297;BME280;65104;52.994;6.552;2023-03-01T08:06:52;103036.25;;;1.70;81.33
76297;BME280;65104;52.994;6.552;2023-03-01T08:09:18;103029.75;;;1.82;82.48
76297;BME280;65104;52.994;6.552;2023-03-01T08:11:43;103026.63;;;1.66;83.89
76297;BME280;65104;52.994;6.552;2023-03-01T08:14:08;103024.75;;;2.60;80.16
76297;BME280;65104;52.994;6.552;2023-03-01T08:16:35;103029.91;;;2.91;80.14
76297;BME280;65104;52.994;6.552;2023-03-01T08:19:08;103033.19;;;2.80;79.64
76297;BME280;65104;52.994;6.552;2023-03-01T08:21:34;103033.88;;;2.48;79.60
76297;BME280;65104;52.994;6.552;2023-03-01T08:24:01;103033.09;;;1.92;81.67
76297;BME280;65104;52.994;6.552;2023-03-01T08:26:27;103036.31;;;1.62;84.66
76297;BME280;65104;52.994;6.552;2023-03-01T08:28:52;103042.47;;;1.55;86.66
76297;BME280;65104;52.994;6.552;2023-03-01T08:31:23;103039.72;;;2.00;86.70
76297;BME280;65104;52.994;6.552;2023-03-01T08:33:51;103028.22;;;2.81;84.58
76297;BME280;65104;52.994;6.552;2023-03-01T08:36:28;103025.34;;;3.58;80.17
76297;BME280;65104;52.994;6.552;2023-03-01T08:38:54;103025.25;;;4.30;78.39
76297;BME280;65104;52.994;6.552;2023-03-01T08:41:20;103016.28;;;4.45;77.77
76297;BME280;65104;52.994;6.552;2023-03-01T08:43:46;103022.84;;;4.75;77.17
76297;BME280;65104;52.994;6.552;2023-03-01T08:46:11;103011.44;;;5.04;75.00
76297;BME280;65104;52.994;6.552;2023-03-01T08:48:37;103020.81;;;4.93;75.30
76297;BME280;65104;52.994;6.552;2023-03-01T08:51:14;103020.09;;;4.72;75.51
76297;BME280;65104;52.994;6.552;2023-03-01T08:53:40;103025.66;;;4.25;76.53
76297;BME280;65104;52.994;6.552;2023-03-01T08:56:07;103031.28;;;3.68;79.81
76297;BME280;65104;52.994;6.552;2023-03-01T08:58:33;103023.22;;;3.12;81.26
76297;BME280;65104;52.994;6.552;2023-03-01T09:00:59;103036.44;;;2.69;82.96
76297;BME280;65104;52.994;6.552;2023-03-01T09:03:25;103031.69;;;3.02;82.62
76297;BME280;65104;52.994;6.552;2023-03-01T09:05:51;103024.09;;;3.12;83.45
76297;BME280;65104;52.994;6.552;2023-03-01T09:08:17;103029.91;;;2.91;82.65
76297;BME280;65104;52.994;6.552;2023-03-01T09:10:43;103021.03;;;2.86;83.40
76297;BME280;65104;52.994;6.552;2023-03-01T09:13:09;103021.56;;;3.02;84.28
76297;BME280;65104;52.994;6.552;2023-03-01T09:15:37;103011.41;;;3.12;84.75
76297;BME280;65104;52.994;6.552;2023-03-01T09:18:02;103010.63;;;3.13;83.76
76297;BME280;65104;52.994;6.552;2023-03-01T09:20:27;103001.00;;;3.09;83.04
76297;BME280;65104;52.994;6.552;2023-03-01T09:22:53;103005.91;;;2.87;83.20
76297;BME280;65104;52.994;6.552;2023-03-01T09:25:18;103002.50;;;2.77;85.48
76297;BME280;65104;52.994;6.552;2023-03-01T09:27:44;103001.34;;;2.83;84.09
76297;BME280;65104;52.994;6.552;2023-03-01T09:30:10;102992.97;;;2.84;84.43
76297;BME280;65104;52.994;6.552;2023-03-01T09:32:35;103001.34;;;2.83;84.41
76297;BME280;65104;52.994;6.552;2023-03-01T09:35:01;103000.72;;;2.86;84.37
76297;BME280;65104;52.994;6.552;2023-03-01T09:37:29;102999.94;;;2.87;84.91
76297;BME280;65104;52.994;6.552;2023-03-01T09:39:54;102989.31;;;2.91;83.71
76297;BME280;65104;52.994;6.552;2023-03-01T09:42:20;102984.09;;;2.99;84.75
76297;BME280;65104;52.994;6.552;2023-03-01T09:44:54;102987.81;;;3.03;84.85
76297;BME280;65104;52.994;6.552;2023-03-01T09:47:29;102992.34;;;3.07;84.12
76297;BME280;65104;52.994;6.552;2023-03-01T09:50:16;102995.28;;;3.12;82.89
76297;BME280;65104;52.994;6.552;2023-03-01T09:52:43;103001.50;;;3.15;83.06
76297;BME280;65104;52.994;6.552;2023-03-01T09:55:14;103004.03;;;3.25;83.42
76297;BME280;65104;52.994;6.552;2023-03-01T09:57:50;103004.28;;;3.38;83.49
76297;BME280;65104;52.994;6.552;2023-03-01T10:02:59;102995.78;;;3.48;82.63
76297;BME280;65104;52.994;6.552;2023-03-01T10:10:47;102991.78;;;3.62;82.37
76297;BME280;65104;52.994;6.552;2023-03-01T10:13:26;103000.28;;;3.72;81.73
76297;BME280;65104;52.994;6.552;2023-03-01T10:16:03;102995.09;;;4.03;80.91
76297;BME280;65104;52.994;6.552;2023-03-01T10:18:33;102996.63;;;4.33;78.66
76297;BME280;65104;52.994;6.552;2023-03-01T10:21:22;102988.34;;;4.57;77.10
76297;BME280;65104;52.994;6.552;2023-03-01T10:23:50;102980.84;;;4.80;75.25
76297;BME280;65104;52.994;6.552;2023-03-01T10:26:38;102981.47;;;4.78;75.30
76297;BME280;65104;52.994;6.552;2023-03-01T10:29:09;102979.69;;;4.77;75.08
76297;BME280;65104;52.994;6.552;2023-03-01T10:31:47;102983.59;;;4.83;74.69
76297;BME280;65104;52.994;6.552;2023-03-01T10:34:18;102991.28;;;4.95;73.63
76297;BME280;65104;52.994;6.552;2023-03-01T10:36:48;102984.56;;;5.07;72.47
76297;BME280;65104;52.994;6.552;2023-03-01T10:39:20;102981.41;;;5.33;71.81
76297;BME280;65104;52.994;6.552;2023-03-01T10:42:02;102975.13;;;5.51;70.56
76297;BME280;65104;52.994;6.552;2023-03-01T10:44:54;102969.69;;;5.70;69.23
76297;BME280;65104;52.994;6.552;2023-03-01T10:47:22;102960.38;;;5.59;67.29
76297;BME280;65104;52.994;6.552;2023-03-01T10:52:21;102960.94;;;5.78;68.46
76297;BME280;65104;52.994;6.552;2023-03-01T10:54:58;102954.41;;;5.93;65.40
76297;BME280;65104;52.994;6.552;2023-03-01T10:57:29;102958.63;;;5.81;64.16
76297;BME280;65104;52.994;6.552;2023-03-01T11:03:01;102954.94;;;6.13;63.85
76297;BME280;65104;52.994;6.552;2023-03-01T11:05:27;102952.09;;;6.33;65.14
76297;BME280;65104;52.994;6.552;2023-03-01T11:07:59;102956.34;;;6.21;61.36
76297;BME280;65104;52.994;6.552;2023-03-01T11:10:27;102961.41;;;6.44;62.68
76297;BME280;65104;52.994;6.552;2023-03-01T11:12:54;102958.34;;;6.61;60.97
76297;BME280;65104;52.994;6.552;2023-03-01T11:15:30;102952.88;;;6.82;60.55
76297;BME280;65104;52.994;6.552;2023-03-01T11:17:56;102950.84;;;7.27;60.83
76297;BME280;65104;52.994;6.552;2023-03-01T11:20:33;102950.34;;;7.20;60.05
76297;BME280;65104;52.994;6.552;2023-03-01T11:23:05;102947.53;;;7.68;57.65
76297;BME280;65104;52.994;6.552;2023-03-01T11:25:38;102947.00;;;8.00;56.12
76297;BME280;65104;52.994;6.552;2023-03-01T11:28:07;102948.53;;;8.24;54.19
76297;BME280;65104;52.994;6.552;2023-03-01T11:30:50;102957.50;;;8.17;53.60
76297;BME280;65104;52.994;6.552;2023-03-01T11:38:53;102947.16;;;9.14;51.21
76297;BME280;65104;52.994;6.552;2023-03-01T11:41:26;102942.97;;;9.75;48.91
76297;BME280;65104;52.994;6.552;2023-03-01T11:44:00;102935.00;;;10.01;48.54
76297;BME280;65104;52.994;6.552;2023-03-01T11:49:07;102942.28;;;9.94;48.05
76297;BME280;65104;52.994;6.552;2023-03-01T11:54:28;102936.22;;;10.08;48.87
76297;BME280;65104;52.994;6.552;2023-03-01T11:57:03;102927.97;;;10.95;47.73
76297;BME280;65104;52.994;6.552;2023-03-01T12:26:35;102880.09;;;11.50;45.53
76297;BME280;65104;52.994;6.552;2023-03-01T12:34:27;102879.16;;;9.97;45.45
76297;BME280;65104;52.994;6.552;2023-03-01T12:37:00;102870.31;;;10.89;44.87
76297;BME280;65104;52.994;6.552;2023-03-01T12:39:42;102864.94;;;11.56;43.66
76297;BME280;65104;52.994;6.552;2023-03-01T12:50:42;102852.09;;;11.38;43.53
76297;BME280;65104;52.994;6.552;2023-03-01T12:55:49;102851.84;;;11.87;43.13
76297;BME280;65104;52.994;6.552;2023-03-01T13:06:32;102830.88;;;11.07;44.43
76297;BME280;65104;52.994;6.552;2023-03-01T13:09:31;102826.13;;;12.06;43.88
76297;BME280;65104;52.994;6.552;2023-03-01T13:12:00;102838.75;;;11.64;45.18
76297;BME280;65104;52.994;6.552;2023-03-01T13:16:52;102834.56;;;11.66;45.42
76297;BME280;65104;52.994;6.552;2023-03-01T13:19:20;102823.47;;;11.85;44.71
76297;BME280;65104;52.994;6.552;2023-03-01T13:21:47;102829.25;;;11.44;46.13
76297;BME280;65104;52.994;6.552;2023-03-01T13:24:35;102835.44;;;11.30;46.43
76297;BME280;65104;52.994;6.552;2023-03-01T13:29:50;102820.44;;;11.04;45.73
76297;BME280;65104;52.994;6.552;2023-03-01T13:34:55;102824.81;;;10.71;48.19
76297;BME280;65104;52.994;6.552;2023-03-01T13:37:26;102814.72;;;11.09;47.40
76297;BME280;65104;52.994;6.552;2023-03-01T13:39:55;102805.81;;;11.03;47.37
76297;BME280;65104;52.994;6.552;2023-03-01T13:42:36;102815.22;;;10.50;48.03
76297;BME280;65104;52.994;6.552;2023-03-01T13:45:04;102802.88;;;11.13;48.69
76297;BME280;65104;52.994;6.552;2023-03-01T13:47:32;102796.66;;;11.08;47.65
76297;BME280;65104;52.994;6.552;2023-03-01T13:50:01;102794.44;;;11.15;46.76
76297;BME280;65104;52.994;6.552;2023-03-01T13:52:45;102788.66;;;10.50;47.10
76297;BME280;65104;52.994;6.552;2023-03-01T13:57:38;102783.63;;;10.69;47.20
76297;BME280;65104;52.994;6.552;2023-03-01T14:05:32;102788.88;;;10.21;47.92
76297;BME280;65104;52.994;6.552;2023-03-01T14:07:58;102787.19;;;10.37;48.63
76297;BME280;65104;52.994;6.552;2023-03-01T14:10:29;102792.88;;;10.15;47.97
76297;BME280;65104;52.994;6.552;2023-03-01T14:13:25;102784.88;;;10.77;46.92
76297;BME280;65104;52.994;6.552;2023-03-01T14:21:14;102764.69;;;9.36;50.73
76297;BME280;65104;52.994;6.552;2023-03-01T14:23:41;102767.97;;;9.33;50.63
76297;BME280;65104;52.994;6.552;2023-03-01T14:26:07;102765.50;;;8.89;52.14
76297;BME280;65104;52.994;6.552;2023-03-01T14:28:36;102756.84;;;9.02;51.95
76297;BME280;65104;52.994;6.552;2023-03-01T14:31:44;102765.50;;;9.51;51.07
76297;BME280;65104;52.994;6.552;2023-03-01T14:34:22;102762.44;;;9.42;50.50
76297;BME280;65104;52.994;6.552;2023-03-01T14:36:48;102758.00;;;9.23;50.64
76297;BME280;65104;52.994;6.552;2023-03-01T14:39:22;102753.13;;;8.97;51.42
76297;BME280;65104;52.994;6.552;2023-03-01T14:41:49;102746.53;;;8.71;52.44
76297;BME280;65104;52.994;6.552;2023-03-01T14:44:24;102749.28;;;8.59;52.87